Time;durP1;ratioP1;P1;durP2;ratioP2;P2;SDS_P1;SDS_P2;PMS_P1;PMS_P2;Temp;Humidity;BMP_temperature;BMP_pressure;BME280_temperature;BME280_humidity;BME280_pressure;Samples;Min_cycle;Max_cycle;Signal;HPM_P1;HPM_P2
2023/01/17 00:01:26;;;;;;;0.10;0.10;;;4.10;99.90;;;;;;5057304;28;20102;-66
2023/01/17 00:12:06;;;;;;;0.10;0.10;;;4.10;99.90;;;;;;5066707;28;20495;-66
2023/01/17 00:14:32;;;;;;;0.10;0.10;;;4.10;99.90;;;;;;5064088;28;20041;-66
2023/01/17 00:17:00;;;;;;;0.10;0.10;;;4.10;99.90;;;;;;5065136;28;20174;-66
2023/01/17 01:34:22;;;;;;;0.10;0.10;;;4.10;99.90;;;;;;5049148;28;20047;-66
2023/01/17 01:36:48;;;;;;;0.10;0.10;;;4.10;99.90;;;;;;5063456;28;20119;-66
2023/01/17 01:39:13;;;;;;;0.10;0.10;;;4.10;99.90;;;;;;5048451;28;20040;-66
2023/01/17 01:41:39;;;;;;;0.10;0.10;;;4.00;99.90;;;;;;5061926;28;20048;-66
2023/01/17 01:44:24;;;;;;;0.10;0.10;;;4.00;99.90;;;;;;5052334;28;20488;-66
2023/01/17 01:46:50;;;;;;;0.20;0.20;;;3.90;99.90;;;;;;5049947;28;20045;-66
2023/01/17 01:49:24;;;;;;;0.10;0.10;;;3.90;99.90;;;;;;5063593;28;20066;-66
2023/01/17 01:51:54;;;;;;;0.77;0.77;;;3.80;99.90;;;;;;5064565;28;20123;-66
2023/01/17 01:54:27;;;;;;;0.10;0.10;;;3.80;99.90;;;;;;5063023;28;20442;-66
2023/01/17 01:56:55;;;;;;;0.10;0.10;;;3.80;99.90;;;;;;5065127;28;20040;-66
2023/01/17 01:59:22;;;;;;;0.10;0.10;;;3.80;99.90;;;;;;5064832;28;20048;-66
2023/01/17 02:01:54;;;;;;;0.10;0.10;;;3.70;99.90;;;;;;5062479;28;20053;-66
2023/01/17 02:04:21;;;;;;;0.40;0.40;;;3.70;99.90;;;;;;5064000;28;20090;-66
2023/01/17 02:06:51;;;;;;;0.13;0.13;;;3.70;99.90;;;;;;5060080;28;20052;-66
2023/01/17 02:09:17;;;;;;;1.10;1.00;;;3.60;99.90;;;;;;5044799;28;20080;-66
2023/01/17 02:11:45;;;;;;;0.10;0.10;;;3.50;99.90;;;;;;5056088;28;20504;-66
2023/01/17 02:14:15;;;;;;;0.10;0.10;;;3.50;99.90;;;;;;5058932;28;20036;-66
2023/01/17 02:16:56;;;;;;;0.10;0.10;;;3.50;99.90;;;;;;5057096;28;20049;-66
2023/01/17 02:19:51;;;;;;;0.10;0.10;;;3.50;99.90;;;;;;5053695;28;20063;-66
2023/01/17 02:22:37;;;;;;;0.10;0.10;;;3.60;99.90;;;;;;5044302;28;20501;-66
2023/01/17 02:25:09;;;;;;;0.10;0.10;;;3.60;99.90;;;;;;5048226;28;20051;-66
2023/01/17 02:27:53;;;;;;;0.10;0.10;;;3.60;99.90;;;;;;5060508;28;20033;-66
2023/01/17 02:30:36;;;;;;;0.10;0.10;;;3.60;99.90;;;;;;5059307;28;20048;-66
2023/01/17 02:33:16;;;;;;;0.68;0.68;;;3.70;99.90;;;;;;5063675;28;20114;-66
2023/01/17 02:35:55;;;;;;;0.10;0.10;;;3.70;99.90;;;;;;5062380;28;20044;-66
2023/01/17 02:38:45;;;;;;;0.30;0.30;;;3.70;99.90;;;;;;5068134;28;20048;-66
2023/01/17 02:41:19;;;;;;;0.10;0.10;;;3.70;99.90;;;;;;5054613;28;20538;-66
2023/01/17 02:43:48;;;;;;;0.10;0.10;;;3.70;99.90;;;;;;5059400;28;20048;-66
2023/01/17 02:46:14;;;;;;;0.10;0.10;;;3.70;99.90;;;;;;5056181;28;20558;-66
2023/01/17 02:48:40;;;;;;;0.10;0.10;;;3.80;99.90;;;;;;5047958;28;20124;-66
2023/01/17 02:51:15;;;;;;;0.10;0.10;;;3.80;99.90;;;;;;5046106;28;20503;-66
2023/01/17 02:53:53;;;;;;;0.10;0.10;;;3.70;99.90;;;;;;5053145;28;20045;-65
2023/01/17 02:57:03;;;;;;;0.10;0.10;;;3.70;99.90;;;;;;5047401;28;20087;-66
2023/01/17 03:00:18;;;;;;;0.10;0.10;;;3.80;99.90;;;;;;5031958;28;20048;-66
2023/01/17 03:03:11;;;;;;;0.40;0.40;;;3.80;99.90;;;;;;5012374;28;20057;-66
2023/01/17 03:05:49;;;;;;;0.10;0.10;;;3.90;99.90;;;;;;5061303;28;20083;-66
2023/01/17 03:08:15;;;;;;;0.10;0.10;;;3.90;99.90;;;;;;5053560;28;20094;-66
2023/01/17 03:10:42;;;;;;;0.10;0.10;;;3.90;99.90;;;;;;5065689;28;20044;-66
2023/01/17 03:13:07;;;;;;;0.10;0.10;;;3.90;99.90;;;;;;5041375;28;20048;-66
2023/01/17 03:15:33;;;;;;;0.10;0.10;;;3.80;99.90;;;;;;5058332;28;20196;-66
2023/01/17 03:18:03;;;;;;;0.10;0.10;;;3.80;99.90;;;;;;5065676;28;20055;-66
2023/01/17 03:20:29;;;;;;;0.10;0.10;;;3.80;99.90;;;;;;5063298;28;20059;-66
2023/01/17 03:22:55;;;;;;;0.10;0.10;;;3.80;99.90;;;;;;5067934;28;20040;-65
2023/01/17 03:25:20;;;;;;;0.10;0.10;;;3.90;99.90;;;;;;5062919;28;20443;-65
2023/01/17 03:27:46;;;;;;;0.10;0.10;;;3.90;99.90;;;;;;5047435;28;20045;-66
2023/01/17 03:30:12;;;;;;;0.10;0.10;;;3.80;99.90;;;;;;5056528;28;20078;-66
2023/01/17 03:32:38;;;;;;;0.10;0.10;;;3.70;99.90;;;;;;5056974;28;20376;-66
2023/01/17 03:35:04;;;;;;;0.10;0.10;;;3.70;99.90;;;;;;5055211;28;20111;-65
2023/01/17 03:37:30;;;;;;;0.20;0.20;;;3.70;99.90;;;;;;5064054;28;20045;-66
2023/01/17 03:39:55;;;;;;;0.10;0.10;;;3.70;99.90;;;;;;5058507;28;20041;-66
2023/01/17 03:42:21;;;;;;;0.10;0.10;;;3.70;99.90;;;;;;5053417;28;20075;-66
2023/01/17 03:44:46;;;;;;;0.10;0.10;;;3.60;99.90;;;;;;5059711;28;20037;-66
2023/01/17 03:47:12;;;;;;;0.10;0.10;;;3.50;99.90;;;;;;5062704;28;20064;-66
2023/01/17 03:49:38;;;;;;;0.10;0.10;;;3.50;99.90;;;;;;5061961;28;20040;-65
2023/01/17 03:52:04;;;;;;;0.10;0.10;;;3.50;99.90;;;;;;5029349;28;20049;-66
2023/01/17 03:54:30;;;;;;;0.10;0.10;;;3.50;99.90;;;;;;5044511;28;20044;-66
2023/01/17 03:56:56;;;;;;;0.10;0.10;;;3.50;99.90;;;;;;5042910;28;20070;-66
2023/01/17 03:59:21;;;;;;;0.10;0.10;;;3.60;99.90;;;;;;5063600;28;20087;-66
2023/01/17 04:01:47;;;;;;;0.10;0.10;;;3.60;99.90;;;;;;5047863;28;20045;-66
2023/01/17 04:04:15;;;;;;;0.10;0.10;;;3.40;99.90;;;;;;5062176;28;20045;-66
2023/01/17 04:06:41;;;;;;;0.10;0.10;;;3.40;99.90;;;;;;5055288;28;20064;-66
2023/01/17 04:09:07;;;;;;;0.20;0.20;;;3.40;99.90;;;;;;5064562;28;20048;-66
2023/01/17 04:11:32;;;;;;;0.10;0.10;;;3.30;99.90;;;;;;5063781;28;20392;-66
2023/01/17 04:13:58;;;;;;;0.20;0.20;;;3.20;99.90;;;;;;5037555;28;20056;-66
2023/01/17 04:16:28;;;;;;;0.10;0.10;;;3.10;99.90;;;;;;5060211;28;20040;-66
2023/01/17 04:18:54;;;;;;;0.10;0.10;;;3.00;99.90;;;;;;5047075;28;20044;-66
2023/01/17 04:21:20;;;;;;;0.10;0.10;;;3.00;99.90;;;;;;5051900;28;20099;-66
2023/01/17 04:23:46;;;;;;;0.10;0.10;;;3.00;99.90;;;;;;5046625;28;20044;-66
2023/01/17 04:26:13;;;;;;;0.10;0.10;;;3.00;99.90;;;;;;5052661;28;20040;-66
2023/01/17 04:28:38;;;;;;;0.10;0.10;;;2.90;99.90;;;;;;5044475;28;20395;-66
2023/01/17 04:31:04;;;;;;;0.10;0.10;;;2.90;99.90;;;;;;5052515;28;20045;-65
2023/01/17 04:33:30;;;;;;;0.10;0.10;;;2.90;99.90;;;;;;5056753;28;20048;-65
2023/01/17 04:35:56;;;;;;;0.10;0.10;;;2.90;99.90;;;;;;5063581;28;20133;-65
2023/01/17 04:38:22;;;;;;;0.10;0.10;;;3.00;99.90;;;;;;5057971;28;20174;-66
2023/01/17 04:40:48;;;;;;;0.10;0.10;;;2.90;99.90;;;;;;5046284;28;20078;-66
2023/01/17 04:43:15;;;;;;;0.10;0.10;;;2.90;99.90;;;;;;5065219;28;20161;-66
2023/01/17 04:45:41;;;;;;;0.10;0.10;;;2.90;99.90;;;;;;5063883;28;20036;-65
2023/01/17 04:48:07;;;;;;;0.10;0.10;;;3.00;99.90;;;;;;5036061;28;20123;-66
2023/01/17 04:50:33;;;;;;;0.10;0.10;;;2.90;99.90;;;;;;5045104;28;20044;-65
2023/01/17 04:52:59;;;;;;;0.10;0.10;;;3.00;99.90;;;;;;5034079;28;20124;-65
2023/01/17 04:55:24;;;;;;;0.10;0.10;;;3.10;99.90;;;;;;5062022;28;20041;-66
2023/01/17 04:57:50;;;;;;;0.10;0.10;;;3.10;99.90;;;;;;5066103;28;20045;-65
2023/01/17 05:00:16;;;;;;;0.10;0.10;;;3.10;99.90;;;;;;5063313;28;20040;-65
2023/01/17 05:02:43;;;;;;;0.10;0.10;;;3.10;99.90;;;;;;5060927;28;20491;-66
2023/01/17 05:05:09;;;;;;;0.10;0.10;;;3.10;99.90;;;;;;5047709;28;20440;-65
2023/01/17 05:07:35;;;;;;;0.10;0.10;;;3.10;99.90;;;;;;5060825;28;20063;-65
2023/01/17 05:10:01;;;;;;;0.10;0.10;;;3.10;99.90;;;;;;5063637;28;20123;-65
2023/01/17 05:12:27;;;;;;;0.10;0.10;;;3.00;99.90;;;;;;5031560;28;20099;-66
2023/01/17 05:14:52;;;;;;;0.15;0.15;;;3.10;99.90;;;;;;5066048;28;20044;-66
2023/01/17 05:17:18;;;;;;;0.13;0.13;;;3.10;99.90;;;;;;5065097;28;20127;-65
2023/01/17 05:19:44;;;;;;;0.10;0.10;;;3.10;99.90;;;;;;5065865;28;20491;-65
2023/01/17 05:22:14;;;;;;;0.10;0.10;;;3.10;99.90;;;;;;5041809;28;20033;-65
2023/01/17 05:24:47;;;;;;;0.10;0.10;;;3.10;99.90;;;;;;5044392;28;20037;-65
2023/01/17 05:27:13;;;;;;;0.17;0.17;;;3.00;99.90;;;;;;5054434;28;20036;-65
2023/01/17 05:29:39;;;;;;;0.17;0.17;;;3.10;99.90;;;;;;5051782;28;20044;-65
2023/01/17 05:32:05;;;;;;;0.60;0.60;;;3.10;99.90;;;;;;5061443;28;20067;-66
2023/01/17 05:34:31;;;;;;;0.10;0.10;;;3.20;99.90;;;;;;5059700;28;20040;-65
2023/01/17 05:36:57;;;;;;;0.10;0.10;;;3.30;99.90;;;;;;5051441;28;20090;-65
2023/01/17 05:39:23;;;;;;;0.10;0.10;;;3.30;99.90;;;;;;5043429;28;20041;-65
2023/01/17 05:41:48;;;;;;;0.10;0.10;;;3.30;99.90;;;;;;5027760;28;20438;-66
2023/01/17 05:44:14;;;;;;;0.10;0.10;;;3.30;99.90;;;;;;5041420;28;20045;-66
2023/01/17 05:46:41;;;;;;;0.20;0.20;;;3.30;99.90;;;;;;5049215;28;20119;-65
2023/01/17 05:49:06;;;;;;;0.10;0.10;;;3.20;99.90;;;;;;5055810;28;20502;-66
2023/01/17 05:51:36;;;;;;;0.10;0.10;;;3.20;99.90;;;;;;5050081;28;20041;-65
2023/01/17 05:54:05;;;;;;;0.10;0.10;;;3.20;99.90;;;;;;5058908;28;20040;-65
2023/01/17 05:56:31;;;;;;;0.10;0.10;;;3.10;99.90;;;;;;5050428;28;20124;-66
2023/01/17 05:58:56;;;;;;;0.10;0.10;;;3.20;99.90;;;;;;5065001;28;20143;-65
2023/01/17 06:01:23;;;;;;;0.10;0.10;;;3.10;99.90;;;;;;5061299;28;20052;-65
2023/01/17 06:03:49;;;;;;;0.10;0.10;;;3.00;99.90;;;;;;5045495;28;20400;-65
2023/01/17 06:06:15;;;;;;;0.10;0.10;;;3.10;99.90;;;;;;5061723;28;20048;-66
2023/01/17 06:08:41;;;;;;;0.10;0.10;;;3.10;99.90;;;;;;5060219;28;20483;-65
2023/01/17 06:11:07;;;;;;;0.10;0.10;;;3.10;99.90;;;;;;5065487;28;20056;-65
2023/01/17 06:13:33;;;;;;;10.75;3.30;;;3.00;99.90;;;;;;5068063;28;20431;-65
2023/01/17 06:16:02;;;;;;;0.10;0.10;;;3.00;99.90;;;;;;5069237;28;20044;-65
2023/01/17 06:18:29;;;;;;;0.10;0.10;;;3.00;99.90;;;;;;5053110;28;20041;-65
2023/01/17 06:20:55;;;;;;;0.20;0.20;;;3.00;99.90;;;;;;5049748;28;20143;-65
2023/01/17 06:23:21;;;;;;;0.10;0.10;;;2.90;99.90;;;;;;5050549;28;22933;-65
2023/01/17 06:25:48;;;;;;;1.45;1.35;;;3.00;99.90;;;;;;5066946;28;20045;-65
2023/01/17 06:28:16;;;;;;;0.80;0.80;;;3.00;99.90;;;;;;5068507;28;20048;-65
2023/01/17 06:30:42;;;;;;;0.10;0.10;;;3.00;99.90;;;;;;5066210;28;20124;-65
2023/01/17 06:33:09;;;;;;;0.10;0.10;;;3.00;99.90;;;;;;5068130;28;20115;-65
2023/01/17 06:35:36;;;;;;;0.10;0.10;;;2.90;99.90;;;;;;5065576;28;20412;-65
2023/01/17 06:38:02;;;;;;;0.10;0.10;;;2.90;99.90;;;;;;5066061;28;20041;-65
2023/01/17 06:40:28;;;;;;;0.10;0.10;;;2.90;99.90;;;;;;5067528;28;20535;-65
2023/01/17 06:42:59;;;;;;;0.10;0.10;;;2.90;99.90;;;;;;5066964;28;20135;-65
2023/01/17 06:45:25;;;;;;;0.10;0.10;;;2.90;99.90;;;;;;5049149;28;20061;-65
2023/01/17 06:47:50;;;;;;;0.10;0.10;;;2.90;99.90;;;;;;5046216;28;20476;-65
2023/01/17 06:50:16;;;;;;;0.10;0.10;;;2.90;99.90;;;;;;5046953;28;20044;-65
2023/01/17 06:52:42;;;;;;;0.10;0.10;;;3.00;99.90;;;;;;5062310;28;20100;-65
2023/01/17 06:55:08;;;;;;;0.10;0.10;;;3.10;99.90;;;;;;5047777;28;20094;-65
2023/01/17 06:57:34;;;;;;;0.10;0.10;;;3.10;99.90;;;;;;5054735;28;20044;-65
2023/01/17 07:00:00;;;;;;;0.10;0.10;;;3.10;99.90;;;;;;5056885;28;20044;-65
2023/01/17 07:02:26;;;;;;;0.10;0.10;;;3.10;99.90;;;;;;5050725;28;20040;-65
2023/01/17 07:04:51;;;;;;;0.10;0.10;;;3.10;99.90;;;;;;5062402;28;20322;-65
2023/01/17 07:07:17;;;;;;;0.47;0.47;;;3.10;99.90;;;;;;5060913;28;20387;-65
2023/01/17 07:09:43;;;;;;;0.10;0.10;;;3.10;99.90;;;;;;5065357;28;20056;-65
2023/01/17 07:12:09;;;;;;;0.10;0.10;;;3.10;99.90;;;;;;5065362;28;20036;-65
2023/01/17 07:14:34;;;;;;;0.10;0.10;;;3.10;99.90;;;;;;5041679;28;20163;-65
2023/01/17 07:17:00;;;;;;;0.10;0.10;;;3.10;99.90;;;;;;5050383;28;20087;-65
2023/01/17 07:19:25;;;;;;;0.10;0.10;;;3.10;99.90;;;;;;5064159;28;20033;-65
2023/01/17 07:21:52;;;;;;;0.10;0.10;;;3.00;99.90;;;;;;5057002;28;20055;-65
2023/01/17 07:24:19;;;;;;;0.10;0.10;;;3.00;99.90;;;;;;5064311;28;20052;-66
2023/01/17 07:26:49;;;;;;;0.10;0.10;;;3.00;99.90;;;;;;5060159;28;20048;-66
2023/01/17 07:29:15;;;;;;;0.10;0.10;;;3.00;99.90;;;;;;5062597;28;20055;-66
2023/01/17 07:31:40;;;;;;;0.10;0.10;;;3.00;99.90;;;;;;5058837;28;20053;-66
2023/01/17 07:34:06;;;;;;;0.10;0.10;;;3.10;99.90;;;;;;5055227;28;20048;-66
2023/01/17 07:36:32;;;;;;;0.45;0.45;;;3.10;99.90;;;;;;5064200;28;20032;-66
2023/01/17 07:38:57;;;;;;;0.10;0.10;;;3.10;99.90;;;;;;5055137;28;20080;-65
2023/01/17 07:41:23;;;;;;;0.10;0.10;;;3.00;99.90;;;;;;5065229;28;20479;-66
2023/01/17 07:43:48;;;;;;;0.10;0.10;;;3.10;99.90;;;;;;5060759;28;20033;-66
2023/01/17 07:46:14;;;;;;;1.55;0.50;;;3.10;99.90;;;;;;5061756;28;20036;-66
2023/01/17 07:48:40;;;;;;;0.10;0.10;;;3.10;99.90;;;;;;5065417;28;20048;-66
2023/01/17 07:51:07;;;;;;;0.10;0.10;;;3.10;99.90;;;;;;5067937;28;20067;-66
2023/01/17 07:53:33;;;;;;;0.10;0.10;;;3.10;99.90;;;;;;5063394;28;20040;-66
2023/01/17 07:56:03;;;;;;;0.10;0.10;;;3.00;99.90;;;;;;5050900;28;20115;-66
2023/01/17 07:58:30;;;;;;;0.10;0.10;;;3.00;99.90;;;;;;5065535;28;20075;-65
2023/01/17 08:01:04;;;;;;;0.10;0.10;;;3.10;99.90;;;;;;5063241;28;20037;-65
2023/01/17 08:03:33;;;;;;;0.10;0.10;;;3.10;99.90;;;;;;5066870;28;20423;-65
2023/01/17 08:06:00;;;;;;;0.10;0.10;;;3.10;99.90;;;;;;5053217;28;20052;-66
2023/01/17 08:08:27;;;;;;;0.10;0.10;;;3.10;99.90;;;;;;5063162;28;20041;-66
2023/01/17 08:10:52;;;;;;;0.20;0.20;;;2.90;99.90;;;;;;5048199;28;20041;-66
2023/01/17 08:13:19;;;;;;;0.20;0.20;;;3.00;99.90;;;;;;5057111;28;20498;-66
2023/01/17 08:15:50;;;;;;;0.10;0.10;;;2.90;99.90;;;;;;5064756;28;20041;-66
2023/01/17 08:18:16;;;;;;;0.10;0.10;;;3.00;99.90;;;;;;5066274;28;20037;-65
2023/01/17 08:20:45;;;;;;;0.10;0.10;;;2.90;99.90;;;;;;5053205;28;20423;-65
2023/01/17 08:23:10;;;;;;;0.10;0.10;;;2.90;99.90;;;;;;5057513;28;20032;-66
2023/01/17 08:25:36;;;;;;;0.10;0.10;;;3.00;99.90;;;;;;5066832;28;20106;-66
2023/01/17 08:28:03;;;;;;;0.10;0.10;;;2.90;99.90;;;;;;5063152;28;20433;-65
2023/01/17 08:30:29;;;;;;;0.10;0.10;;;2.90;99.90;;;;;;5065433;28;20048;-66
2023/01/17 08:32:54;;;;;;;0.10;0.10;;;3.00;99.90;;;;;;5065185;28;20054;-65
2023/01/17 08:35:23;;;;;;;0.10;0.10;;;3.00;99.90;;;;;;5059591;28;20777;-65
2023/01/17 08:37:52;;;;;;;0.10;0.10;;;3.00;99.90;;;;;;5047945;28;20549;-66
2023/01/17 08:40:18;;;;;;;0.10;0.10;;;3.00;99.90;;;;;;5045847;28;20041;-65
2023/01/17 08:42:52;;;;;;;0.10;0.10;;;3.10;99.90;;;;;;5063831;28;20109;-66
2023/01/17 08:45:17;;;;;;;0.10;0.10;;;3.20;99.90;;;;;;5059555;28;20115;-65
2023/01/17 08:47:43;;;;;;;0.10;0.10;;;3.20;99.90;;;;;;5047062;28;20143;-66
2023/01/17 08:50:09;;;;;;;1.15;1.13;;;3.20;99.90;;;;;;5061532;28;20066;-67
2023/01/17 08:52:35;;;;;;;0.10;0.10;;;3.30;99.90;;;;;;5062587;28;20491;-65
2023/01/17 08:55:01;;;;;;;0.10;0.10;;;3.30;99.90;;;;;;5055971;28;20055;-65
2023/01/17 08:57:27;;;;;;;0.10;0.10;;;3.40;99.90;;;;;;5041963;28;20500;-65
2023/01/17 08:59:52;;;;;;;0.10;0.10;;;3.40;99.90;;;;;;5045494;28;20079;-66
2023/01/17 09:02:19;;;;;;;0.10;0.10;;;3.50;99.90;;;;;;5062733;28;20052;-65
2023/01/17 09:04:46;;;;;;;0.10;0.10;;;3.50;99.90;;;;;;5044658;28;20044;-65
2023/01/17 09:07:13;;;;;;;0.10;0.10;;;3.50;99.90;;;;;;5053066;28;20520;-66
2023/01/17 09:09:38;;;;;;;0.10;0.10;;;3.60;99.90;;;;;;5053857;28;20579;-66
2023/01/17 09:12:05;;;;;;;0.10;0.10;;;3.60;99.90;;;;;;5032771;28;20051;-65
2023/01/17 09:14:31;;;;;;;0.45;0.45;;;3.60;99.90;;;;;;5044872;28;20459;-65
2023/01/17 09:16:56;;;;;;;0.10;0.10;;;3.60;99.90;;;;;;5063664;28;20044;-65
2023/01/17 09:19:23;;;;;;;0.10;0.10;;;3.70;99.90;;;;;;5034339;28;20060;-65
2023/01/17 09:21:49;;;;;;;0.10;0.10;;;3.70;99.90;;;;;;5044411;28;20076;-65
2023/01/17 09:24:14;;;;;;;0.45;0.45;;;3.80;99.90;;;;;;5056618;28;20075;-66
2023/01/17 09:26:40;;;;;;;0.10;0.10;;;3.80;99.90;;;;;;5060314;28;20090;-65
2023/01/17 09:29:05;;;;;;;0.10;0.10;;;3.80;99.90;;;;;;5060693;28;20041;-65
2023/01/17 09:31:31;;;;;;;0.10;0.10;;;3.90;99.90;;;;;;5049714;28;20059;-65
2023/01/17 09:33:57;;;;;;;2.65;0.90;;;3.90;99.90;;;;;;5045499;28;20056;-65
2023/01/17 09:36:27;;;;;;;0.10;0.10;;;3.90;99.90;;;;;;5051997;28;20445;-66
2023/01/17 09:39:00;;;;;;;0.10;0.10;;;3.90;99.90;;;;;;5064350;28;20052;-65
2023/01/17 09:41:42;;;;;;;0.10;0.10;;;3.90;99.90;;;;;;5063351;28;20127;-65
2023/01/17 09:44:20;;;;;;;0.10;0.10;;;3.90;99.90;;;;;;5060555;28;20052;-65
2023/01/17 09:46:48;;;;;;;0.10;0.10;;;3.90;99.90;;;;;;5049480;28;20447;-65
2023/01/17 09:49:37;;;;;;;0.10;0.10;;;3.90;99.90;;;;;;5047026;28;20127;-65
2023/01/17 09:52:04;;;;;;;0.10;0.10;;;3.90;99.90;;;;;;5065777;28;20060;-66
2023/01/17 09:54:34;;;;;;;0.10;0.10;;;3.90;99.90;;;;;;5067211;28;20098;-66
2023/01/17 09:57:12;;;;;;;0.10;0.10;;;3.90;99.90;;;;;;5068081;28;20041;-66
2023/01/17 09:59:58;;;;;;;0.10;0.10;;;3.90;99.90;;;;;;5057288;28;20048;-66
2023/01/17 10:02:37;;;;;;;0.15;0.15;;;3.90;99.90;;;;;;5048010;28;20052;-66
2023/01/17 10:05:16;;;;;;;0.10;0.10;;;3.90;99.90;;;;;;5067859;28;20052;-65
2023/01/17 10:08:05;;;;;;;0.10;0.10;;;3.90;99.90;;;;;;5046260;28;20056;-66
2023/01/17 10:10:41;;;;;;;0.10;0.10;;;3.90;99.90;;;;;;5043070;28;20511;-66
2023/01/17 10:13:45;;;;;;;0.10;0.10;;;3.90;99.90;;;;;;5069298;28;20115;-66
2023/01/17 10:16:37;;;;;;;0.10;0.10;;;3.90;99.90;;;;;;5042766;28;20056;-65
2023/01/17 10:19:17;;;;;;;0.10;0.10;;;4.00;99.90;;;;;;5058324;28;20127;-66
2023/01/17 10:22:03;;;;;;;0.10;0.10;;;4.00;99.90;;;;;;5051795;28;20124;-66
2023/01/17 10:24:51;;;;;;;0.10;0.10;;;4.10;99.90;;;;;;5067107;28;20507;-65
2023/01/17 10:27:24;;;;;;;0.10;0.10;;;4.20;99.90;;;;;;5048688;28;20040;-67
2023/01/17 10:29:50;;;;;;;0.10;0.10;;;4.40;99.90;;;;;;5063864;28;20032;-66
2023/01/17 10:32:18;;;;;;;0.10;0.10;;;4.60;99.90;;;;;;5068492;28;20048;-66
2023/01/17 10:34:48;;;;;;;0.10;0.10;;;4.80;99.90;;;;;;5065083;28;20080;-66
2023/01/17 10:37:35;;;;;;;0.15;0.15;;;5.00;99.90;;;;;;5067414;28;20036;-66
2023/01/17 10:40:12;;;;;;;0.10;0.10;;;5.00;99.90;;;;;;5062012;28;20037;-66
2023/01/17 10:42:52;;;;;;;0.17;0.17;;;5.00;99.90;;;;;;5055071;28;20063;-66
2023/01/17 10:45:27;;;;;;;0.03;0.03;;;5.10;99.90;;;;;;5059254;28;20496;-67
2023/01/17 10:48:08;;;;;;;0.10;0.10;;;5.20;99.90;;;;;;5046500;28;20056;-65
2023/01/17 10:50:55;;;;;;;0.40;0.40;;;5.30;99.90;;;;;;5049560;28;20079;-65
2023/01/17 10:53:43;;;;;;;0.10;0.10;;;5.30;99.90;;;;;;5056691;28;20056;-65
2023/01/17 10:56:13;;;;;;;0.10;0.10;;;5.40;99.90;;;;;;5066241;28;20159;-66
2023/01/17 10:58:38;;;;;;;0.10;0.10;;;5.30;99.90;;;;;;5062902;28;20123;-65
2023/01/17 11:01:18;;;;;;;0.10;0.10;;;5.30;99.90;;;;;;5063857;28;20111;-66
2023/01/17 11:03:49;;;;;;;0.10;0.10;;;5.20;99.90;;;;;;5047190;28;20049;-66
2023/01/17 11:06:21;;;;;;;0.10;0.10;;;5.10;99.90;;;;;;5061261;28;20088;-66
2023/01/17 11:08:57;;;;;;;0.10;0.10;;;5.20;99.90;;;;;;5067333;28;20070;-66
2023/01/17 11:11:35;;;;;;;0.10;0.10;;;5.30;99.90;;;;;;5067601;28;20044;-66
2023/01/17 11:14:04;;;;;;;0.10;0.10;;;5.40;99.90;;;;;;5066665;28;20090;-66
2023/01/17 11:16:31;;;;;;;0.10;0.10;;;5.40;99.90;;;;;;5065841;28;20055;-66
2023/01/17 11:19:11;;;;;;;0.10;0.10;;;5.50;99.90;;;;;;5050809;28;20480;-66
2023/01/17 11:21:38;;;;;;;0.10;0.10;;;5.50;99.90;;;;;;5065985;28;20048;-66
2023/01/17 11:24:18;;;;;;;0.10;0.10;;;5.60;99.90;;;;;;5067099;28;20054;-66
2023/01/17 11:26:48;;;;;;;0.10;0.10;;;5.60;99.90;;;;;;5043898;28;20172;-66
2023/01/17 11:29:36;;;;;;;0.85;0.73;;;5.60;99.90;;;;;;5065900;28;20045;-66
2023/01/17 11:32:21;;;;;;;0.10;0.10;;;5.70;99.90;;;;;;5066629;28;20087;-66
2023/01/17 11:35:14;;;;;;;0.10;0.10;;;5.80;99.90;;;;;;5066121;28;20036;-66
2023/01/17 11:38:09;;;;;;;0.13;0.13;;;5.90;99.90;;;;;;5065287;28;20055;-66
2023/01/17 11:40:40;;;;;;;0.10;0.10;;;6.00;99.90;;;;;;5052611;28;20143;-66
2023/01/17 11:43:17;;;;;;;0.43;0.43;;;6.10;99.90;;;;;;5065826;28;20373;-66
2023/01/17 11:45:43;;;;;;;0.10;0.10;;;6.10;99.90;;;;;;5065969;28;20056;-66
2023/01/17 11:48:12;;;;;;;0.10;0.10;;;6.30;99.90;;;;;;5050024;28;20463;-65
2023/01/17 11:50:43;;;;;;;0.10;0.10;;;6.50;99.90;;;;;;5046419;28;20044;-65
2023/01/17 11:53:27;;;;;;;0.10;0.10;;;6.50;99.90;;;;;;5046419;28;20106;-66
2023/01/17 11:56:07;;;;;;;0.10;0.10;;;6.70;99.90;;;;;;5051296;28;20128;-66
2023/01/17 11:58:44;;;;;;;0.10;0.10;;;6.80;99.90;;;;;;5048300;28;20040;-66
2023/01/17 12:01:25;;;;;;;0.10;0.10;;;7.00;99.90;;;;;;5067893;28;20090;-66
2023/01/17 12:04:06;;;;;;;0.17;0.17;;;7.10;99.90;;;;;;5064762;28;20041;-66
2023/01/17 12:06:38;;;;;;;0.10;0.10;;;7.20;99.90;;;;;;5051523;28;20057;-65
2023/01/17 12:09:30;;;;;;;0.10;0.10;;;7.30;99.90;;;;;;5065955;28;20049;-66
2023/01/17 12:15:22;;;;;;;0.10;0.10;;;7.70;99.90;;;;;;5052331;28;20045;-65
2023/01/17 12:18:09;;;;;;;0.10;0.10;;;7.80;99.90;;;;;;5055268;28;20051;-66
2023/01/17 12:20:47;;;;;;;0.10;0.10;;;7.80;99.90;;;;;;5061693;28;20052;-66
2023/01/17 12:23:25;;;;;;;0.10;0.10;;;7.90;99.90;;;;;;5067361;28;20048;-66
2023/01/17 12:26:26;;;;;;;0.10;0.10;;;8.10;99.90;;;;;;5036356;28;20132;-66
2023/01/17 12:29:22;;;;;;;1.55;0.75;;;8.00;99.90;;;;;;5045777;28;20052;-66
2023/01/17 12:32:18;;;;;;;0.10;0.10;;;8.10;99.90;;;;;;5028203;28;20063;-66
2023/01/17 12:34:53;;;;;;;0.10;0.10;;;8.10;99.90;;;;;;5049821;28;20041;-66
2023/01/17 12:37:42;;;;;;;0.10;0.10;;;8.10;99.90;;;;;;5065906;28;20535;-66
2023/01/17 12:40:36;;;;;;;0.10;0.10;;;8.10;99.90;;;;;;5065500;28;20495;-65
2023/01/17 12:43:17;;;;;;;1.13;1.08;;;7.80;99.90;;;;;;5038775;28;20464;-66
2023/01/17 12:45:44;;;;;;;0.10;0.10;;;7.70;99.90;;;;;;5045499;28;20156;-66
2023/01/17 12:48:17;;;;;;;0.10;0.10;;;7.60;99.90;;;;;;5051234;28;20029;-66
2023/01/17 12:51:08;;;;;;;0.57;0.57;;;7.40;99.90;;;;;;5064292;28;20045;-66
2023/01/17 12:53:39;;;;;;;0.10;0.10;;;7.40;99.90;;;;;;5048636;28;21400;-66
2023/01/17 12:56:08;;;;;;;0.10;0.10;;;7.50;99.90;;;;;;5035009;28;20025;-66
2023/01/17 12:58:43;;;;;;;0.00;0.00;;;7.60;99.90;;;;;;5063019;28;20040;-65
2023/01/17 13:01:20;;;;;;;0.10;0.10;;;7.80;99.90;;;;;;5064635;28;20151;-65
2023/01/17 13:03:57;;;;;;;0.00;0.00;;;7.90;99.90;;;;;;5054217;28;20045;-66
2023/01/17 13:06:46;;;;;;;0.10;0.10;;;8.10;99.90;;;;;;5062012;28;20063;-66
2023/01/17 13:09:19;;;;;;;1.45;0.95;;;8.30;99.90;;;;;;5040144;28;20366;-67
2023/01/17 13:11:54;;;;;;;0.10;0.10;;;8.40;99.90;;;;;;5046093;28;20084;-66
2023/01/17 13:14:20;;;;;;;0.10;0.10;;;8.60;99.90;;;;;;5048231;28;20049;-66
2023/01/17 13:16:56;;;;;;;0.10;0.10;;;8.70;99.90;;;;;;5048854;28;20050;-66
2023/01/17 13:19:37;;;;;;;0.10;0.10;;;8.80;99.90;;;;;;5048056;28;20369;-66
2023/01/17 13:22:07;;;;;;;0.10;0.10;;;9.00;99.90;;;;;;5042760;28;20515;-66
2023/01/17 13:24:43;;;;;;;0.10;0.10;;;9.20;99.90;;;;;;5045233;28;20125;-66
2023/01/17 13:27:36;;;;;;;0.10;0.10;;;9.20;99.90;;;;;;5039296;28;20041;-66
2023/01/17 13:30:15;;;;;;;0.10;0.10;;;9.40;99.90;;;;;;5062251;28;20574;-66
2023/01/17 13:33:09;;;;;;;0.00;0.00;;;8.90;99.90;;;;;;5063791;28;20059;-66
2023/01/17 13:35:43;;;;;;;0.10;0.10;;;8.60;99.90;;;;;;5046625;28;20583;-65
2023/01/17 13:38:36;;;;;;;0.10;0.10;;;8.20;99.90;;;;;;5052317;28;20053;-65
2023/01/17 13:41:35;;;;;;;0.10;0.10;;;7.60;99.90;;;;;;5063248;28;20523;-66
2023/01/17 13:47:03;;;;;;;0.10;0.10;;;7.40;99.90;;;;;;5062802;28;20178;-65
2023/01/17 13:49:28;;;;;;;0.38;0.38;;;7.70;99.90;;;;;;5061277;28;20102;-65
2023/01/17 13:52:10;;;;;;;0.10;0.10;;;7.70;99.90;;;;;;5061861;28;20048;-66
2023/01/17 13:54:43;;;;;;;0.10;0.10;;;7.50;99.90;;;;;;5043965;28;20091;-66
2023/01/17 13:57:24;;;;;;;0.00;0.00;;;7.40;99.90;;;;;;5054607;28;20071;-66
2023/01/17 13:59:57;;;;;;;0.10;0.10;;;7.30;99.90;;;;;;5052391;28;20525;-66
2023/01/17 14:02:31;;;;;;;0.10;0.10;;;7.00;99.90;;;;;;5025453;28;20044;-65
2023/01/17 14:05:19;;;;;;;0.10;0.10;;;6.90;99.90;;;;;;5052895;28;20045;-65
2023/01/17 14:08:03;;;;;;;0.10;0.10;;;6.80;99.90;;;;;;5043382;28;20056;-66
2023/01/17 14:10:59;;;;;;;0.10;0.10;;;6.70;99.90;;;;;;5042417;28;20124;-65
2023/01/17 14:13:36;;;;;;;0.03;0.03;;;6.60;99.90;;;;;;5052654;28;20481;-65
2023/01/17 14:16:21;;;;;;;0.10;0.10;;;6.60;99.90;;;;;;5050355;28;20098;-65
2023/01/17 14:18:47;;;;;;;0.10;0.10;;;6.60;99.90;;;;;;5041830;28;20045;-65
2023/01/17 14:21:30;;;;;;;0.10;0.10;;;6.50;99.90;;;;;;5042516;28;20145;-65
2023/01/17 14:24:11;;;;;;;0.10;0.10;;;6.30;99.90;;;;;;5062116;28;20045;-65
2023/01/17 14:26:46;;;;;;;0.10;0.10;;;6.30;99.90;;;;;;5050878;28;20049;-65
2023/01/17 14:29:50;;;;;;;0.10;0.10;;;6.20;99.90;;;;;;5062442;28;20170;-66
2023/01/17 14:32:22;;;;;;;0.10;0.10;;;6.10;99.90;;;;;;5063026;28;20519;-66
2023/01/17 14:34:51;;;;;;;0.10;0.10;;;6.20;99.90;;;;;;5052381;28;20484;-65
2023/01/17 14:37:23;;;;;;;0.10;0.10;;;6.10;99.90;;;;;;5047352;28;20053;-65
2023/01/17 14:39:50;;;;;;;0.10;0.10;;;6.10;99.90;;;;;;5065696;28;20059;-65
2023/01/17 14:42:19;;;;;;;0.10;0.10;;;6.10;99.90;;;;;;5067376;28;20068;-65
2023/01/17 14:44:47;;;;;;;0.10;0.10;;;6.10;99.90;;;;;;5063362;28;20040;-65
2023/01/17 14:47:14;;;;;;;0.10;0.10;;;6.00;99.90;;;;;;5064495;28;20048;-65
2023/01/17 14:49:40;;;;;;;0.10;0.10;;;6.00;99.90;;;;;;5066511;28;20037;-65
2023/01/17 14:52:05;;;;;;;0.05;0.05;;;5.90;99.90;;;;;;5055778;28;20078;-65